Time;durP1;ratioP1;P1;durP2;ratioP2;P2;SDS_P1;SDS_P2;PMS_P1;PMS_P2;Temp;Humidity;BMP_temperature;BMP_pressure;BME280_temperature;BME280_humidity;BME280_pressure;Samples;Min_cycle;Max_cycle;Signal;HPM_P1;HPM_P2
2022/01/11 00:01:55;;;;;;;72.47;28.08;;;;;;;-0.96;100.00;103068.66;5055045;28;20052;-75
2022/01/11 00:04:21;;;;;;;71.78;27.10;;;;;;;-0.96;100.00;103078.25;5053828;28;20025;-75
2022/01/11 00:06:49;;;;;;;69.78;27.98;;;;;;;-0.96;100.00;103081.72;5054088;28;20029;-79
2022/01/11 00:09:50;;;;;;;69.57;26.17;;;;;;;-0.95;100.00;103085.22;5054923;28;20036;-75
2022/01/11 00:12:08;;;;;;;79.93;27.40;;;;;;;-0.93;100.00;103092.16;5051479;28;20041;-75
2022/01/11 00:14:35;;;;;;;66.20;26.58;;;;;;;-0.92;100.00;103100.88;5055274;28;20037;-75
2022/01/11 00:17:01;;;;;;;68.05;26.27;;;;;;;-0.90;100.00;103104.34;5053681;28;20076;-75
2022/01/11 00:19:28;;;;;;;66.38;25.48;;;;;;;-0.91;100.00;103103.47;5054720;28;20067;-75
2022/01/11 00:21:54;;;;;;;64.88;25.85;;;;;;;-0.98;100.00;103103.53;5053002;28;20044;-75
2022/01/11 00:24:30;;;;;;;63.55;25.42;;;;;;;-0.99;100.00;103097.41;5055347;28;20031;-75
2022/01/11 00:27:09;;;;;;;66.07;25.70;;;;;;;-0.98;100.00;103101.78;5055065;28;20057;-75
2022/01/11 00:29:39;;;;;;;66.95;26.17;;;;;;;-1.00;100.00;103097.44;5053817;28;20036;-75
2022/01/11 00:32:09;;;;;;;66.57;26.42;;;;;;;-0.99;100.00;103099.19;5054909;28;20131;-75
2022/01/11 00:34:49;;;;;;;69.65;26.33;;;;;;;-0.99;100.00;103094.81;5054552;28;20037;-74
2022/01/11 00:37:16;;;;;;;76.15;27.70;;;;;;;-0.97;100.00;103097.41;5054247;28;20056;-75
2022/01/11 00:39:42;;;;;;;81.38;30.25;;;;;;;-0.97;100.00;103097.41;5054652;28;20095;-76
2022/01/11 00:42:12;;;;;;;75.70;29.58;;;;;;;-0.97;100.00;103093.06;5054049;28;20163;-76
2022/01/11 00:44:38;;;;;;;77.13;28.92;;;;;;;-0.95;100.00;103100.91;5054411;28;20073;-75
2022/01/11 00:47:03;;;;;;;83.85;30.83;;;;;;;-0.91;100.00;103100.88;5052821;28;20126;-75
2022/01/11 00:49:29;;;;;;;90.80;32.45;;;;;;;-0.90;100.00;103100.00;5053907;28;20029;-75
2022/01/11 00:51:54;;;;;;;88.15;33.08;;;;;;;-0.89;100.00;103109.56;5053780;28;20029;-76
2022/01/11 00:54:20;;;;;;;90.50;33.60;;;;;;;-0.87;100.00;103108.69;5052868;28;20060;-76
2022/01/11 00:56:45;;;;;;;94.20;35.38;;;;;;;-0.87;100.00;103111.31;5053861;28;20029;-75
2022/01/11 00:59:10;;;;;;;97.97;35.00;;;;;;;-0.86;100.00;103111.28;5054149;28;20117;-75
2022/01/11 01:01:37;;;;;;;100.55;34.92;;;;;;;-0.84;100.00;103112.13;5054343;28;20061;-75
2022/01/11 01:04:05;;;;;;;99.00;35.28;;;;;;;-0.82;100.00;103104.28;5053577;28;20029;-75
2022/01/11 01:06:31;;;;;;;103.18;34.30;;;;;;;-0.82;100.00;103107.78;5053702;28;20465;-75
2022/01/11 01:08:56;;;;;;;106.90;35.38;;;;;;;-0.81;100.00;103108.66;5053509;28;20035;-79
2022/01/11 01:11:22;;;;;;;110.88;35.67;;;;;;;-0.79;100.00;103105.16;5052581;28;20044;-75
2022/01/11 01:13:47;;;;;;;100.35;35.20;;;;;;;-0.78;100.00;103101.63;5053889;28;20048;-75
2022/01/11 01:16:14;;;;;;;96.65;34.63;;;;;;;-0.75;100.00;103098.16;5052813;28;20123;-75
2022/01/11 01:18:39;;;;;;;108.55;36.15;;;;;;;-0.75;100.00;103101.66;5053636;28;20462;-75
2022/01/11 01:21:05;;;;;;;104.78;35.40;;;;;;;-0.75;100.00;103099.03;5053534;28;20033;-76
2022/01/11 01:23:31;;;;;;;110.85;35.40;;;;;;;-0.74;100.00;103099.88;5053613;28;20033;-76
2022/01/11 01:25:56;;;;;;;109.50;34.65;;;;;;;-0.74;100.00;103103.38;5052760;28;20064;-78
2022/01/11 01:28:22;;;;;;;97.22;34.72;;;;;;;-0.73;100.00;103107.72;5053915;28;20029;-75
2022/01/11 01:30:49;;;;;;;105.45;35.67;;;;;;;-0.70;100.00;103109.47;5053626;28;20064;-75
2022/01/11 01:33:15;;;;;;;102.03;35.13;;;;;;;-0.68;100.00;103104.22;5053790;28;20419;-76
2022/01/11 01:35:42;;;;;;;108.75;36.28;;;;;;;-0.68;100.00;103101.59;5053761;28;20029;-75
2022/01/11 01:38:09;;;;;;;105.03;35.97;;;;;;;-0.66;100.00;103112.91;5053064;28;20056;-75
2022/01/11 01:40:39;;;;;;;107.25;35.90;;;;;;;-0.66;100.00;103113.75;5053305;28;20056;-76
2022/01/11 01:43:09;;;;;;;95.28;34.90;;;;;;;-0.62;100.00;103109.41;5053046;28;20029;-75
2022/01/11 01:45:35;;;;;;;104.40;36.35;;;;;;;-0.60;100.00;103107.63;5052900;28;20125;-74
2022/01/11 01:48:02;;;;;;;100.68;34.67;;;;;;;-0.62;100.00;103107.63;5053152;28;20033;-79
2022/01/11 01:50:29;;;;;;;110.97;36.08;;;;;;;-0.62;100.00;103098.94;5053215;28;20032;-77
2022/01/11 01:52:57;;;;;;;112.80;35.92;;;;;;;-0.61;100.00;103105.88;5051947;28;20033;-75
2022/01/11 01:55:25;;;;;;;100.00;33.67;;;;;;;-0.59;100.00;103115.47;5052817;28;20227;-75
2022/01/11 01:57:50;;;;;;;107.13;35.28;;;;;;;-0.59;100.00;103112.84;5053026;28;20035;-75
2022/01/11 02:00:20;;;;;;;102.63;34.97;;;;;;;-0.58;100.00;103111.97;5053237;28;20116;-75
2022/01/11 02:02:46;;;;;;;100.72;33.47;;;;;;;-0.56;100.00;103114.56;5052289;28;20036;-75
2022/01/11 02:05:12;;;;;;;95.72;32.65;;;;;;;-0.55;100.00;103119.78;5052940;28;20533;-75
2022/01/11 02:07:37;;;;;;;95.75;33.90;;;;;;;-0.57;100.00;103121.56;5053029;28;20163;-75
2022/01/11 02:10:05;;;;;;;95.45;33.42;;;;;;;-0.57;100.00;103118.94;5053383;28;20102;-78
2022/01/11 02:12:31;;;;;;;97.20;33.28;;;;;;;-0.56;100.00;103119.81;5053433;28;20025;-75
2022/01/11 02:14:57;;;;;;;96.78;33.22;;;;;;;-0.55;100.00;103129.41;5053469;28;20049;-74
2022/01/11 02:17:25;;;;;;;80.45;31.88;;;;;;;-0.52;100.00;103126.75;5053162;28;20040;-75
2022/01/11 02:19:54;;;;;;;89.78;32.70;;;;;;;-0.53;100.00;103132.84;5053153;28;20025;-75
2022/01/11 02:22:19;;;;;;;99.28;34.33;;;;;;;-0.52;100.00;103136.34;5052519;28;20040;-74
2022/01/11 02:24:44;;;;;;;88.03;32.65;;;;;;;-0.52;100.00;103138.94;5052919;28;20416;-76
2022/01/11 02:27:10;;;;;;;86.55;33.47;;;;;;;-0.51;100.00;103140.69;5053226;28;20369;-75
2022/01/11 02:29:35;;;;;;;91.05;33.53;;;;;;;-0.51;100.00;103138.94;5052565;28;20404;-76
2022/01/11 02:32:01;;;;;;;95.35;32.95;;;;;;;-0.51;100.00;103138.94;5052785;28;20055;-75
2022/01/11 02:34:26;;;;;;;93.53;33.28;;;;;;;-0.51;100.00;103141.56;5052988;28;20108;-75
2022/01/11 02:36:51;;;;;;;95.70;32.70;;;;;;;-0.48;100.00;103138.91;5052606;28;20458;-75
2022/01/11 02:39:17;;;;;;;98.82;33.10;;;;;;;-0.45;100.00;103143.25;5051526;28;20110;-75
2022/01/11 02:41:57;;;;;;;85.30;32.03;;;;;;;-0.44;100.00;103148.47;5051256;28;20033;-75
2022/01/11 02:44:23;;;;;;;90.68;32.65;;;;;;;-0.44;100.00;103148.47;5053304;28;20030;-74
2022/01/11 02:46:49;;;;;;;96.07;33.70;;;;;;;-0.44;100.00;103143.25;5051886;28;20029;-74
2022/01/11 02:49:14;;;;;;;87.82;33.28;;;;;;;-0.42;100.00;103144.13;5051299;28;20037;-76
2022/01/11 02:51:40;;;;;;;85.95;31.63;;;;;;;-0.41;100.00;103138.00;5053165;28;20424;-76
2022/01/11 02:54:05;;;;;;;85.95;32.03;;;;;;;-0.38;100.00;103137.97;5052906;28;20120;-75
2022/01/11 02:56:31;;;;;;;95.35;32.25;;;;;;;-0.39;100.00;103137.97;5052686;28;20466;-75
2022/01/11 02:58:57;;;;;;;92.75;31.40;;;;;;;-0.40;100.00;103144.97;5052698;28;20033;-76
2022/01/11 03:01:23;;;;;;;87.10;31.30;;;;;;;-0.40;100.00;103155.44;5051553;28;20370;-76
2022/01/11 03:03:48;;;;;;;97.47;33.15;;;;;;;-0.39;100.00;103154.56;5052517;28;20040;-76
2022/01/11 03:06:14;;;;;;;92.22;32.40;;;;;;;-0.38;100.00;103152.81;5051107;28;20481;-76
2022/01/11 03:08:46;;;;;;;87.32;31.90;;;;;;;-0.37;100.00;103158.03;5051963;28;20064;-76
2022/01/11 03:11:13;;;;;;;84.38;32.42;;;;;;;-0.37;100.00;103158.03;5052515;28;20119;-78
2022/01/11 03:13:41;;;;;;;90.88;33.97;;;;;;;-0.36;100.00;103162.38;5055298;28;20131;-75
2022/01/11 03:16:08;;;;;;;88.35;31.45;;;;;;;-0.36;100.00;103151.03;5056162;28;20406;-75
2022/01/11 03:18:34;;;;;;;89.70;32.78;;;;;;;-0.36;100.00;103153.66;5055698;28;20108;-76
2022/01/11 03:21:00;;;;;;;99.95;34.10;;;;;;;-0.35;100.00;103150.16;5055406;28;20048;-76
2022/01/11 03:23:26;;;;;;;93.43;32.17;;;;;;;-0.37;100.00;103154.56;5055475;28;20079;-76
2022/01/11 03:25:52;;;;;;;92.15;33.17;;;;;;;-0.37;100.00;103155.41;5054211;28;20029;-76
2022/01/11 03:28:23;;;;;;;94.75;33.15;;;;;;;-0.38;100.00;103161.50;5055617;28;20037;-76
2022/01/11 03:30:51;;;;;;;87.00;31.70;;;;;;;-0.38;100.00;103153.66;5055942;28;20021;-76
2022/01/11 03:33:17;;;;;;;100.70;32.88;;;;;;;-0.34;100.00;103161.47;5054993;28;20396;-79
2022/01/11 03:35:42;;;;;;;87.18;32.83;;;;;;;-0.37;100.00;103152.78;5055610;28;20098;-76
2022/01/11 03:38:11;;;;;;;101.85;34.70;;;;;;;-0.38;100.00;103153.66;5055529;28;20061;-76
2022/01/11 03:40:38;;;;;;;97.38;34.13;;;;;;;-0.38;100.00;103152.81;5055343;28;20052;-76
2022/01/11 03:43:04;;;;;;;98.50;34.78;;;;;;;-0.40;100.00;103147.59;5055906;28;20100;-75
2022/01/11 03:45:30;;;;;;;99.18;34.88;;;;;;;-0.40;100.00;103147.59;5055066;28;20115;-76
2022/01/11 03:47:58;;;;;;;95.05;33.65;;;;;;;-0.41;100.00;103140.59;5055138;28;20083;-76
2022/01/11 03:50:23;;;;;;;104.15;34.55;;;;;;;-0.41;100.00;103147.59;5055432;28;20036;-76
2022/01/11 03:52:58;;;;;;;104.30;35.53;;;;;;;-0.46;100.00;103137.19;5055739;28;20108;-75
2022/01/11 03:55:42;;;;;;;100.78;33.47;;;;;;;-0.46;100.00;103131.94;5054932;28;20036;-75
2022/01/11 03:58:08;;;;;;;102.63;35.70;;;;;;;-0.47;100.00;103124.09;5055084;28;20028;-75
2022/01/11 04:00:33;;;;;;;96.15;34.97;;;;;;;-0.50;100.00;103130.22;5055013;28;20116;-75
2022/01/11 04:02:59;;;;;;;106.05;36.40;;;;;;;-0.54;100.00;103129.38;5054870;28;20465;-75
2022/01/11 04:05:24;;;;;;;109.55;36.80;;;;;;;-0.57;100.00;103131.13;5055015;28;20033;-76
2022/01/11 04:07:49;;;;;;;107.45;35.97;;;;;;;-0.61;100.00;103132.03;5055535;28;20069;-75
2022/01/11 04:10:15;;;;;;;112.38;37.45;;;;;;;-0.65;100.00;103135.56;5053701;28;20520;-76
2022/01/11 04:12:40;;;;;;;118.50;39.00;;;;;;;-0.69;100.00;103129.47;5054084;28;20070;-76
2022/01/11 04:15:06;;;;;;;119.10;38.60;;;;;;;-0.74;100.00;103142.59;5055678;28;20127;-76
2022/01/11 04:17:31;;;;;;;115.38;38.08;;;;;;;-0.77;100.00;103144.34;5054926;28;20389;-75
2022/01/11 04:19:57;;;;;;;117.50;38.80;;;;;;;-0.79;100.00;103143.47;5054751;28;20033;-75
2022/01/11 04:22:22;;;;;;;114.65;38.88;;;;;;;-0.78;100.00;103143.47;5054440;28;20057;-79
2022/01/11 04:24:48;;;;;;;117.45;37.65;;;;;;;-0.80;100.00;103137.41;5053694;28;20087;-75
2022/01/11 04:27:13;;;;;;;107.40;37.70;;;;;;;-0.80;100.00;103136.53;5054630;28;20362;-75
2022/01/11 04:29:38;;;;;;;117.45;38.45;;;;;;;-0.83;100.00;103147.88;5054306;28;20032;-75
2022/01/11 04:32:04;;;;;;;105.10;37.78;;;;;;;-0.81;100.00;103150.47;5054285;28;20025;-74
2022/01/11 04:34:30;;;;;;;107.50;36.72;;;;;;;-0.81;100.00;103155.69;5054913;28;20051;-75
2022/01/11 04:36:55;;;;;;;96.43;36.00;;;;;;;-0.83;100.00;103153.09;5054480;28;20493;-75
2022/01/11 04:39:22;;;;;;;107.13;37.33;;;;;;;-0.84;100.00;103151.34;5053078;28;20466;-75
2022/01/11 04:41:48;;;;;;;110.45;38.50;;;;;;;-0.86;100.00;103153.13;5055033;28;20447;-74
2022/01/11 04:44:13;;;;;;;103.22;37.30;;;;;;;-0.87;100.00;103160.97;5054033;28;20040;-77
2022/01/11 04:46:38;;;;;;;106.30;37.25;;;;;;;-0.87;100.00;103158.34;5054362;28;20431;-76
2022/01/11 04:49:04;;;;;;;106.05;38.80;;;;;;;-0.86;100.00;103160.97;5054301;28;20457;-75
2022/01/11 04:51:29;;;;;;;100.72;37.20;;;;;;;-0.87;100.00;103159.22;5054114;28;20125;-75
2022/01/11 04:53:56;;;;;;;100.53;36.53;;;;;;;-0.85;100.00;103159.22;5053795;28;20036;-75
2022/01/11 04:56:22;;;;;;;111.13;36.47;;;;;;;-0.86;100.00;103155.72;5052726;28;20033;-76
2022/01/11 04:58:48;;;;;;;97.22;37.60;;;;;;;-0.87;100.00;103153.13;5054379;28;20029;-75
2022/01/11 05:01:13;;;;;;;100.10;36.83;;;;;;;-0.86;100.00;103155.72;5053765;28;20025;-75
2022/01/11 05:03:39;;;;;;;97.47;37.00;;;;;;;-0.86;100.00;103147.88;5053657;28;20116;-75
2022/01/11 05:06:07;;;;;;;91.18;35.70;;;;;;;-0.89;100.00;103140.94;5053874;28;20076;-75
2022/01/11 05:08:33;;;;;;;92.28;35.83;;;;;;;-0.90;100.00;103151.38;5052510;28;20033;-76
2022/01/11 05:10:58;;;;;;;93.03;35.72;;;;;;;-0.94;100.00;103147.94;5053802;28;20096;-76
2022/01/11 05:13:23;;;;;;;92.95;37.22;;;;;;;-0.96;100.00;103147.06;5054115;28;20449;-76
2022/01/11 05:15:49;;;;;;;90.97;35.55;;;;;;;-0.96;100.00;103146.19;5052574;28;20100;-75
2022/01/11 05:18:15;;;;;;;93.82;36.40;;;;;;;-0.99;100.00;103146.22;5053869;28;20119;-76
2022/01/11 05:20:41;;;;;;;78.72;33.92;;;;;;;-1.01;100.00;103145.38;5053813;28;20029;-76
2022/01/11 05:23:08;;;;;;;86.85;34.92;;;;;;;-1.02;100.00;103151.47;5053917;28;20161;-75
2022/01/11 05:25:34;;;;;;;76.38;33.03;;;;;;;-1.05;100.00;103152.34;5053506;28;20041;-75
2022/01/11 05:27:59;;;;;;;80.03;35.03;;;;;;;-1.07;100.00;103160.19;5053561;28;20455;-75
2022/01/11 05:30:26;;;;;;;77.60;34.17;;;;;;;-1.11;100.00;103157.59;5053666;28;20404;-75
2022/01/11 05:32:52;;;;;;;82.15;33.60;;;;;;;-1.14;100.00;103155.00;5053377;28;20035;-75
2022/01/11 05:35:19;;;;;;;76.57;32.78;;;;;;;-1.12;100.00;103155.84;5051697;28;20033;-75
2022/01/11 05:37:45;;;;;;;86.75;32.70;;;;;;;-1.06;100.00;103158.44;5053101;28;20112;-75
2022/01/11 05:40:11;;;;;;;78.25;33.60;;;;;;;-1.00;100.00;103160.16;5053558;28;20033;-75
2022/01/11 05:42:37;;;;;;;74.35;31.63;;;;;;;-1.02;100.00;103165.38;5053731;28;20033;-74
2022/01/11 05:45:05;;;;;;;75.10;33.78;;;;;;;-1.02;100.00;103167.16;5054077;28;20033;-75
2022/01/11 05:47:30;;;;;;;69.40;30.52;;;;;;;-0.98;100.00;103171.50;5053152;28;20142;-75
2022/01/11 05:49:56;;;;;;;69.97;30.80;;;;;;;-0.96;100.00;103167.09;5052144;28;20119;-74
2022/01/11 05:52:21;;;;;;;76.65;31.38;;;;;;;-0.96;100.00;103170.56;5053040;28;20032;-74
2022/01/11 05:54:47;;;;;;;64.35;30.23;;;;;;;-0.96;100.00;103172.34;5051644;28;20033;-75
2022/01/11 05:57:12;;;;;;;65.97;30.35;;;;;;;-0.95;100.00;103176.69;5053516;28;20033;-77
2022/01/11 05:59:38;;;;;;;63.83;30.27;;;;;;;-0.95;100.00;103188.00;5052538;28;20381;-77
2022/01/11 06:02:04;;;;;;;65.88;30.42;;;;;;;-0.94;100.00;103178.41;5052965;28;20036;-75
2022/01/11 06:04:29;;;;;;;63.35;30.63;;;;;;;-0.91;100.00;103181.00;5051991;28;20048;-75
2022/01/11 06:06:55;;;;;;;59.15;29.17;;;;;;;-0.89;100.00;103179.28;5053150;28;20029;-75
2022/01/11 06:09:25;;;;;;;53.05;27.58;;;;;;;-0.90;100.00;103190.59;5052695;28;20115;-72
2022/01/11 06:11:51;;;;;;;59.50;27.70;;;;;;;-0.92;100.00;103185.38;5052983;28;20378;-72
2022/01/11 06:14:16;;;;;;;56.35;28.02;;;;;;;-0.95;100.00;103189.75;5052695;28;20052;-72
2022/01/11 06:16:42;;;;;;;59.08;28.40;;;;;;;-0.99;100.00;103185.41;5052606;28;20087;-71
2022/01/11 06:19:07;;;;;;;58.38;26.85;;;;;;;-1.04;100.00;103189.81;5052536;28;20509;-71
2022/01/11 06:21:32;;;;;;;58.53;28.17;;;;;;;-1.07;100.00;103188.94;5053498;28;20068;-71
2022/01/11 06:23:58;;;;;;;59.08;28.42;;;;;;;-1.09;100.00;103189.81;5053248;28;20028;-72
2022/01/11 06:26:23;;;;;;;54.08;27.50;;;;;;;-1.11;100.00;103195.03;5052526;28;20433;-72
2022/01/11 06:28:48;;;;;;;60.55;28.67;;;;;;;-1.15;100.00;103200.28;5052878;28;20036;-73
2022/01/11 06:31:14;;;;;;;59.33;29.00;;;;;;;-1.17;100.00;103199.44;5051763;28;20120;-73
2022/01/11 06:33:39;;;;;;;63.08;29.00;;;;;;;-1.21;100.00;103195.09;5052697;28;20136;-76
2022/01/11 06:36:10;;;;;;;61.50;27.65;;;;;;;-1.25;100.00;103205.53;5052349;28;20456;-71
2022/01/11 06:38:40;;;;;;;61.58;28.98;;;;;;;-1.27;100.00;103209.91;5052748;28;20060;-72
2022/01/11 06:41:06;;;;;;;61.75;27.73;;;;;;;-1.29;100.00;103218.63;5052588;28;20037;-72
2022/01/11 06:43:32;;;;;;;66.72;29.23;;;;;;;-1.27;100.00;103220.38;5052458;28;20102;-73
2022/01/11 06:45:57;;;;;;;56.75;27.20;;;;;;;-1.25;100.00;103213.38;5052753;28;20082;-73
2022/01/11 06:48:22;;;;;;;59.65;28.33;;;;;;;-1.22;100.00;103211.63;5054875;28;20041;-73
2022/01/11 06:50:48;;;;;;;65.72;29.45;;;;;;;-1.17;100.00;103218.56;5054983;28;20154;-73
2022/01/11 06:53:13;;;;;;;62.40;27.50;;;;;;;-1.13;100.00;103216.84;5056220;28;20033;-71
2022/01/11 06:55:39;;;;;;;59.20;27.13;;;;;;;-1.12;100.00;103219.44;5055993;28;20115;-73
2022/01/11 06:58:04;;;;;;;59.22;27.42;;;;;;;-1.10;100.00;103217.69;5056241;28;20056;-72
2022/01/11 07:00:30;;;;;;;58.78;27.67;;;;;;;-1.05;100.00;103215.06;5056771;28;20037;-72
2022/01/11 07:02:55;;;;;;;57.92;27.75;;;;;;;-1.02;100.00;103199.34;5056093;28;20041;-71
2022/01/11 07:05:21;;;;;;;62.85;27.83;;;;;;;-1.01;100.00;103208.94;5038255;28;20040;-71
2022/01/11 07:07:46;;;;;;;58.92;28.02;;;;;;;-0.99;100.00;103216.78;5055871;28;20112;-74
2022/01/11 07:10:11;;;;;;;57.67;26.52;;;;;;;-0.98;100.00;103218.53;5056079;28;20039;-73
2022/01/11 07:12:37;;;;;;;50.63;25.50;;;;;;;-1.00;100.00;103225.50;5056340;28;20029;-73
2022/01/11 07:15:03;;;;;;;53.83;26.10;;;;;;;-1.04;100.00;103223.78;5056402;28;20162;-72
2022/01/11 07:17:29;;;;;;;55.47;27.13;;;;;;;-1.08;100.00;103231.59;5058899;28;20494;-73
2022/01/11 07:19:54;;;;;;;53.67;26.15;;;;;;;-1.09;100.00;103234.22;5058644;28;20108;-73
2022/01/11 07:22:20;;;;;;;49.97;24.73;;;;;;;-1.11;100.00;103243.81;5058356;28;20370;-73
2022/01/11 07:24:45;;;;;;;48.42;25.05;;;;;;;-1.15;100.00;103253.44;5056103;28;20520;-73
2022/01/11 07:27:11;;;;;;;49.90;25.20;;;;;;;-1.17;100.00;103255.16;5055919;28;20174;-74
2022/01/11 07:29:36;;;;;;;54.90;26.08;;;;;;;-1.19;100.00;103256.91;5055880;28;20434;-72
2022/01/11 07:32:02;;;;;;;51.33;25.73;;;;;;;-1.17;100.00;103251.69;5055669;28;20470;-71
2022/01/11 07:34:28;;;;;;;47.47;24.85;;;;;;;-1.13;100.00;103245.59;5054126;28;20151;-71
2022/01/11 07:36:53;;;;;;;48.08;23.80;;;;;;;-1.13;100.00;103246.44;5055578;28;20035;-72
2022/01/11 07:39:18;;;;;;;51.97;25.25;;;;;;;-1.15;100.00;103248.19;5055821;28;20075;-71
2022/01/11 07:41:44;;;;;;;45.10;24.10;;;;;;;-1.16;100.00;103249.06;5055366;28;20477;-71
2022/01/11 07:44:11;;;;;;;46.38;23.23;;;;;;;-1.16;100.00;103241.22;5054333;28;20033;-71
2022/01/11 07:46:39;;;;;;;51.63;24.38;;;;;;;-1.17;100.00;103251.69;5056058;28;20178;-72
2022/01/11 07:49:05;;;;;;;42.08;23.52;;;;;;;-1.13;100.00;103248.19;5055403;28;20040;-71
2022/01/11 07:51:30;;;;;;;46.67;22.58;;;;;;;-1.17;100.00;103246.47;5055405;28;20478;-72
2022/01/11 07:53:56;;;;;;;44.60;23.52;;;;;;;-1.22;100.00;103250.81;5054993;28;20037;-71
2022/01/11 07:56:21;;;;;;;47.67;23.45;;;;;;;-1.23;100.00;103255.19;5055955;28;20119;-71
2022/01/11 07:58:47;;;;;;;44.53;22.83;;;;;;;-1.28;100.00;103260.41;5054745;28;20120;-71
2022/01/11 08:01:13;;;;;;;48.45;22.52;;;;;;;-1.30;100.00;103259.56;5055067;28;20580;-71
2022/01/11 08:03:38;;;;;;;51.72;24.58;;;;;;;-1.34;100.00;103263.03;5054932;28;20040;-71
2022/01/11 08:06:04;;;;;;;49.38;22.33;;;;;;;-1.36;100.00;103271.75;5054203;28;20044;-72
2022/01/11 08:08:30;;;;;;;51.45;23.55;;;;;;;-1.40;100.00;103270.91;5054403;28;20037;-72
2022/01/11 08:10:56;;;;;;;50.10;23.45;;;;;;;-1.40;100.00;103272.63;5055348;28;20531;-72
2022/01/11 08:13:22;;;;;;;47.08;23.02;;;;;;;-1.42;100.00;103273.50;5054727;28;20100;-71
2022/01/11 08:15:48;;;;;;;47.80;23.23;;;;;;;-1.43;100.00;103269.16;5055341;28;20057;-72
2022/01/11 08:18:13;;;;;;;52.78;23.98;;;;;;;-1.45;100.00;103270.00;5054718;28;20036;-71
2022/01/11 08:20:39;;;;;;;47.75;23.08;;;;;;;-1.45;100.00;103281.34;5055494;28;20036;-71
2022/01/11 08:23:04;;;;;;;54.50;24.50;;;;;;;-1.47;100.00;103280.47;5054735;28;20443;-72
2022/01/11 08:25:30;;;;;;;50.05;23.40;;;;;;;-1.50;100.00;103283.09;5054755;28;20033;-71
2022/01/11 08:27:55;;;;;;;50.42;23.02;;;;;;;-1.50;100.00;103283.09;5053275;28;20044;-73
2022/01/11 08:30:21;;;;;;;46.88;22.10;;;;;;;-1.47;100.00;103285.69;5053459;28;20048;-71
2022/01/11 08:32:46;;;;;;;42.38;22.88;;;;;;;-1.43;100.00;103287.44;5055090;28;20032;-71
2022/01/11 08:35:12;;;;;;;47.85;22.55;;;;;;;-1.37;100.00;103277.84;5054578;28;20509;-71
2022/01/11 08:37:38;;;;;;;46.85;22.15;;;;;;;-1.35;100.00;103276.97;5054459;28;20025;-70
2022/01/11 08:40:04;;;;;;;45.92;22.35;;;;;;;-1.36;100.00;103285.66;5054435;28;20381;-71
2022/01/11 08:42:30;;;;;;;42.33;21.60;;;;;;;-1.32;100.00;103282.19;5054284;28;20039;-71
2022/01/11 08:44:56;;;;;;;50.42;22.42;;;;;;;-1.31;100.00;103281.31;5054423;28;20502;-71
2022/01/11 08:47:22;;;;;;;46.90;22.45;;;;;;;-1.30;100.00;103276.97;5054318;28;20078;-71
2022/01/11 08:49:48;;;;;;;41.35;21.13;;;;;;;-1.28;100.00;103281.31;5054379;28;20362;-72
2022/01/11 08:52:14;;;;;;;40.33;19.92;;;;;;;-1.24;100.00;103282.16;5052770;28;20041;-72
2022/01/11 08:54:40;;;;;;;40.90;20.45;;;;;;;-1.23;100.00;103288.28;5054739;28;20040;-71
2022/01/11 08:57:05;;;;;;;41.08;20.38;;;;;;;-1.25;100.00;103294.38;5054112;28;20107;-72
2022/01/11 08:59:31;;;;;;;37.03;19.58;;;;;;;-1.26;100.00;103290.00;5054020;28;20174;-71
2022/01/11 09:01:59;;;;;;;42.95;20.20;;;;;;;-1.23;100.00;103296.13;5054110;28;20021;-72
2022/01/11 09:04:26;;;;;;;37.83;19.85;;;;;;;-1.21;100.00;103300.44;5053901;28;20039;-72
2022/01/11 09:06:57;;;;;;;38.42;20.15;;;;;;;-1.20;100.00;103301.34;5053692;28;20423;-72
2022/01/11 09:09:24;;;;;;;39.10;19.73;;;;;;;-1.25;100.00;103298.72;5053932;28;20506;-73
2022/01/11 09:11:51;;;;;;;42.80;20.83;;;;;;;-1.22;100.00;103305.69;5053549;28;20021;-73
2022/01/11 09:14:17;;;;;;;45.17;21.10;;;;;;;-1.12;100.00;103300.47;5053497;28;20533;-73
2022/01/11 09:16:43;;;;;;;42.00;21.45;;;;;;;-1.11;100.00;103306.53;5054353;28;20112;-72
2022/01/11 09:19:09;;;;;;;35.63;19.45;;;;;;;-1.07;100.00;103309.13;5053246;28;20040;-72
2022/01/11 09:21:34;;;;;;;37.10;19.67;;;;;;;-1.04;100.00;103310.03;5053914;28;20453;-72
2022/01/11 09:24:00;;;;;;;34.33;19.15;;;;;;;-1.02;100.00;103316.97;5053999;28;20094;-72
2022/01/11 09:26:26;;;;;;;36.72;19.95;;;;;;;-0.98;100.00;103310.00;5053561;28;20029;-72
2022/01/11 09:28:52;;;;;;;39.63;19.77;;;;;;;-0.90;100.00;103313.44;5054218;28;20028;-72
2022/01/11 09:31:17;;;;;;;41.85;19.77;;;;;;;-0.79;100.00;103314.31;5053454;28;20112;-72
2022/01/11 09:33:43;;;;;;;35.78;18.95;;;;;;;-0.67;100.00;103318.63;5053493;28;20029;-72
2022/01/11 09:36:08;;;;;;;34.08;17.92;;;;;;;-0.57;100.00;103307.25;5053404;28;20492;-71
2022/01/11 09:38:34;;;;;;;33.53;18.65;;;;;;;-0.42;100.00;103311.53;5052463;28;20523;-72
2022/01/11 09:41:01;;;;;;;36.08;18.67;;;;;;;-0.30;100.00;103308.00;5053712;28;20031;-71
2022/01/11 09:43:28;;;;;;;33.58;16.85;;;;;;;-0.19;100.00;103308.78;5052658;28;20033;-70
2022/01/11 09:45:55;;;;;;;31.70;17.30;;;;;;;-0.08;100.00;103305.25;5053465;28;20036;-71
2022/01/11 09:48:22;;;;;;;33.55;17.02;;;;;;;0.03;100.00;103305.16;5053724;28;20027;-73
2022/01/11 09:50:47;;;;;;;34.60;17.48;;;;;;;0.13;100.00;103298.97;5052928;28;20503;-72
2022/01/11 09:53:13;;;;;;;25.25;15.52;;;;;;;0.26;99.00;103292.78;5053520;28;20119;-72
2022/01/11 09:55:38;;;;;;;28.45;16.65;;;;;;;0.33;98.61;103293.63;5053177;28;20063;-73
2022/01/11 09:58:05;;;;;;;32.42;16.25;;;;;;;0.42;98.24;103298.75;5052911;28;20037;-72
2022/01/11 10:00:31;;;;;;;28.95;15.45;;;;;;;0.50;97.67;103298.69;5052747;28;20036;-71
2022/01/11 10:02:57;;;;;;;33.38;15.77;;;;;;;0.62;97.21;103302.97;5053436;28;20033;-71
2022/01/11 10:05:23;;;;;;;29.95;15.77;;;;;;;0.71;96.65;103297.63;5053212;28;20322;-72
2022/01/11 10:07:49;;;;;;;27.90;15.55;;;;;;;0.82;96.13;103308.00;5053192;28;20032;-71
2022/01/11 10:10:26;;;;;;;28.73;15.32;;;;;;;0.93;95.79;103307.91;5052909;28;20049;-73
2022/01/11 10:12:54;;;;;;;26.80;14.25;;;;;;;1.04;94.63;103309.50;5052968;28;20033;-71
2022/01/11 10:15:32;;;;;;;26.58;15.15;;;;;;;1.18;94.25;103325.09;5052982;28;20071;-72
2022/01/11 10:17:57;;;;;;;23.98;13.20;;;;;;;1.28;93.91;103333.72;5052696;28;20033;-72
2022/01/11 10:20:25;;;;;;;27.50;13.70;;;;;;;1.38;92.50;103332.72;5052713;28;20475;-72
2022/01/11 10:23:03;;;;;;;25.33;14.30;;;;;;;1.48;92.54;103337.84;5054434;28;20068;-73
2022/01/11 10:25:30;;;;;;;24.60;13.68;;;;;;;1.56;92.42;103334.25;5056967;28;20029;-71
2022/01/11 10:28:01;;;;;;;23.70;13.70;;;;;;;1.67;92.82;103341.13;5055659;28;20044;-72
2022/01/11 10:30:28;;;;;;;28.73;14.63;;;;;;;1.74;91.41;103341.00;5056974;28;20130;-72
2022/01/11 10:32:56;;;;;;;25.27;13.40;;;;;;;1.88;91.84;103340.84;5057193;28;20382;-73
2022/01/11 10:35:29;;;;;;;25.65;13.32;;;;;;;1.99;90.77;103337.22;5055596;28;20097;-69
2022/01/11 10:37:59;;;;;;;23.65;13.00;;;;;;;2.09;89.85;103331.78;5057135;28;20033;-72
2022/01/11 10:40:32;;;;;;;22.13;12.75;;;;;;;2.22;88.74;103340.31;5057214;28;20025;-73
2022/01/11 10:43:04;;;;;;;24.13;12.75;;;;;;;2.38;86.92;103333.09;5057472;28;20025;-73
2022/01/11 10:45:38;;;;;;;24.33;12.43;;;;;;;2.48;86.36;103344.31;5056322;28;20047;-71
2022/01/11 10:48:11;;;;;;;22.58;12.00;;;;;;;2.59;85.56;103338.88;5057497;28;20032;-71
2022/01/11 10:50:37;;;;;;;18.80;11.15;;;;;;;2.70;84.62;103341.31;5056411;28;20115;-72
2022/01/11 10:53:12;;;;;;;22.98;11.00;;;;;;;2.92;83.60;103337.41;5056866;28;20048;-72
2022/01/11 10:55:38;;;;;;;18.08;10.75;;;;;;;2.97;81.80;103330.31;5056792;28;20031;-72
2022/01/11 10:58:06;;;;;;;21.23;10.85;;;;;;;3.10;82.38;103344.09;5056706;28;20033;-71
2022/01/11 11:00:31;;;;;;;18.52;10.27;;;;;;;3.39;82.14;103332.13;5056237;28;20032;-72